sensor_id;sensor_type;location;lat;lon;timestamp;P1;durP1;ratioP1;P2;durP2;ratioP2
31872;SDS011;22407;42.820;23.374;2023-04-03T00:00:01;5.63;;;2.90;;
31872;SDS011;22407;42.820;23.374;2023-04-03T00:02:27;5.97;;;2.58;;
31872;SDS011;22407;42.820;23.374;2023-04-03T00:04:53;8.67;;;3.37;;
31872;SDS011;22407;42.820;23.374;2023-04-03T00:07:18;6.80;;;2.63;;
31872;SDS011;22407;42.820;23.374;2023-04-03T00:09:43;7.57;;;2.80;;
31872;SDS011;22407;42.820;23.374;2023-04-03T00:12:09;6.73;;;2.90;;
31872;SDS011;22407;42.820;23.374;2023-04-03T00:14:35;5.72;;;2.60;;
31872;SDS011;22407;42.820;23.374;2023-04-03T00:17:00;7.30;;;2.80;;
31872;SDS011;22407;42.820;23.374;2023-04-03T00:19:26;5.60;;;2.50;;
31872;SDS011;22407;42.820;23.374;2023-04-03T00:21:51;5.80;;;2.57;;
31872;SDS011;22407;42.820;23.374;2023-04-03T00:24:18;7.03;;;3.20;;
31872;SDS011;22407;42.820;23.374;2023-04-03T00:26:43;6.60;;;2.90;;
31872;SDS011;22407;42.820;23.374;2023-04-03T00:29:09;6.57;;;3.03;;
31872;SDS011;22407;42.820;23.374;2023-04-03T00:31:34;5.70;;;2.88;;
31872;SDS011;22407;42.820;23.374;2023-04-03T00:33:59;6.43;;;2.97;;
31872;SDS011;22407;42.820;23.374;2023-04-03T00:36:25;6.27;;;2.80;;
31872;SDS011;22407;42.820;23.374;2023-04-03T00:38:50;7.47;;;3.13;;
31872;SDS011;22407;42.820;23.374;2023-04-03T00:41:15;6.70;;;2.93;;
31872;SDS011;22407;42.820;23.374;2023-04-03T00:43:40;5.60;;;2.83;;
31872;SDS011;22407;42.820;23.374;2023-04-03T00:46:06;5.63;;;2.50;;
31872;SDS011;22407;42.820;23.374;2023-04-03T00:48:36;6.03;;;3.15;;
31872;SDS011;22407;42.820;23.374;2023-04-03T00:51:03;5.80;;;2.60;;
31872;SDS011;22407;42.820;23.374;2023-04-03T00:53:31;6.40;;;2.65;;
31872;SDS011;22407;42.820;23.374;2023-04-03T00:55:57;6.57;;;3.03;;
31872;SDS011;22407;42.820;23.374;2023-04-03T00:58:26;5.90;;;2.75;;
31872;SDS011;22407;42.820;23.374;2023-04-03T01:00:54;6.95;;;3.08;;
31872;SDS011;22407;42.820;23.374;2023-04-03T01:03:22;6.80;;;2.87;;
31872;SDS011;22407;42.820;23.374;2023-04-03T01:05:48;6.13;;;2.80;;
31872;SDS011;22407;42.820;23.374;2023-04-03T01:08:13;6.83;;;3.30;;
31872;SDS011;22407;42.820;23.374;2023-04-03T01:10:38;6.43;;;2.93;;
31872;SDS011;22407;42.820;23.374;2023-04-03T01:13:16;7.47;;;3.23;;
31872;SDS011;22407;42.820;23.374;2023-04-03T01:15:45;7.60;;;3.58;;
31872;SDS011;22407;42.820;23.374;2023-04-03T01:18:10;7.38;;;3.38;;
31872;SDS011;22407;42.820;23.374;2023-04-03T01:20:56;7.43;;;2.90;;
31872;SDS011;22407;42.820;23.374;2023-04-03T01:25:53;7.00;;;3.00;;
31872;SDS011;22407;42.820;23.374;2023-04-03T01:28:21;6.20;;;3.10;;
31872;SDS011;22407;42.820;23.374;2023-04-03T01:33:20;7.83;;;3.20;;
31872;SDS011;22407;42.820;23.374;2023-04-03T01:35:45;7.25;;;3.55;;
31872;SDS011;22407;42.820;23.374;2023-04-03T01:38:11;6.53;;;3.13;;
31872;SDS011;22407;42.820;23.374;2023-04-03T01:40:36;6.73;;;3.43;;
31872;SDS011;22407;42.820;23.374;2023-04-03T01:43:01;8.13;;;3.33;;
31872;SDS011;22407;42.820;23.374;2023-04-03T01:45:26;17.53;;;6.37;;
31872;SDS011;22407;42.820;23.374;2023-04-03T01:47:52;9.23;;;4.10;;
31872;SDS011;22407;42.820;23.374;2023-04-03T01:50:17;7.80;;;3.97;;
31872;SDS011;22407;42.820;23.374;2023-04-03T01:52:43;7.63;;;3.87;;
31872;SDS011;22407;42.820;23.374;2023-04-03T01:55:08;5.90;;;2.67;;
31872;SDS011;22407;42.820;23.374;2023-04-03T01:57:33;6.07;;;2.72;;
31872;SDS011;22407;42.820;23.374;2023-04-03T01:59:58;5.90;;;2.90;;
31872;SDS011;22407;42.820;23.374;2023-04-03T02:02:24;7.53;;;3.33;;
31872;SDS011;22407;42.820;23.374;2023-04-03T02:04:49;10.60;;;4.50;;
31872;SDS011;22407;42.820;23.374;2023-04-03T02:07:14;10.73;;;4.70;;
31872;SDS011;22407;42.820;23.374;2023-04-03T02:09:40;9.77;;;4.83;;
31872;SDS011;22407;42.820;23.374;2023-04-03T02:12:05;11.60;;;5.50;;
31872;SDS011;22407;42.820;23.374;2023-04-03T02:14:30;12.98;;;5.05;;
31872;SDS011;22407;42.820;23.374;2023-04-03T02:16:56;8.03;;;3.40;;
31872;SDS011;22407;42.820;23.374;2023-04-03T02:19:21;9.73;;;5.20;;
31872;SDS011;22407;42.820;23.374;2023-04-03T02:21:46;11.07;;;4.63;;
31872;SDS011;22407;42.820;23.374;2023-04-03T02:24:11;8.53;;;3.73;;
31872;SDS011;22407;42.820;23.374;2023-04-03T02:26:37;9.20;;;4.00;;
31872;SDS011;22407;42.820;23.374;2023-04-03T02:29:02;8.50;;;3.90;;
31872;SDS011;22407;42.820;23.374;2023-04-03T02:31:27;7.47;;;3.60;;
31872;SDS011;22407;42.820;23.374;2023-04-03T02:33:53;8.73;;;3.77;;
31872;SDS011;22407;42.820;23.374;2023-04-03T02:36:18;8.03;;;4.00;;
31872;SDS011;22407;42.820;23.374;2023-04-03T02:38:43;7.82;;;3.47;;
31872;SDS011;22407;42.820;23.374;2023-04-03T02:41:09;9.30;;;3.90;;
31872;SDS011;22407;42.820;23.374;2023-04-03T02:43:35;8.52;;;4.22;;
31872;SDS011;22407;42.820;23.374;2023-04-03T02:46:00;6.67;;;3.23;;
31872;SDS011;22407;42.820;23.374;2023-04-03T02:48:26;7.97;;;3.77;;
31872;SDS011;22407;42.820;23.374;2023-04-03T02:50:52;7.85;;;4.15;;
31872;SDS011;22407;42.820;23.374;2023-04-03T02:53:17;7.80;;;3.93;;
31872;SDS011;22407;42.820;23.374;2023-04-03T02:55:43;9.05;;;4.03;;
31872;SDS011;22407;42.820;23.374;2023-04-03T02:58:08;6.93;;;3.37;;
31872;SDS011;22407;42.820;23.374;2023-04-03T03:00:34;8.93;;;3.70;;
31872;SDS011;22407;42.820;23.374;2023-04-03T03:02:59;7.87;;;3.20;;
31872;SDS011;22407;42.820;23.374;2023-04-03T03:05:25;9.07;;;4.00;;
31872;SDS011;22407;42.820;23.374;2023-04-03T03:07:50;8.27;;;3.80;;
31872;SDS011;22407;42.820;23.374;2023-04-03T03:10:15;8.80;;;4.53;;
31872;SDS011;22407;42.820;23.374;2023-04-03T03:12:41;8.20;;;3.70;;
31872;SDS011;22407;42.820;23.374;2023-04-03T03:15:07;8.93;;;3.67;;
31872;SDS011;22407;42.820;23.374;2023-04-03T03:17:32;9.90;;;4.00;;
31872;SDS011;22407;42.820;23.374;2023-04-03T03:19:57;8.20;;;3.67;;
31872;SDS011;22407;42.820;23.374;2023-04-03T03:22:23;11.30;;;5.00;;
31872;SDS011;22407;42.820;23.374;2023-04-03T03:24:48;14.03;;;5.17;;
31872;SDS011;22407;42.820;23.374;2023-04-03T03:27:13;8.07;;;3.90;;
31872;SDS011;22407;42.820;23.374;2023-04-03T03:29:41;9.02;;;4.00;;
31872;SDS011;22407;42.820;23.374;2023-04-03T03:32:06;9.87;;;5.13;;
31872;SDS011;22407;42.820;23.374;2023-04-03T03:34:31;12.53;;;5.43;;
31872;SDS011;22407;42.820;23.374;2023-04-03T03:36:57;10.37;;;5.17;;
31872;SDS011;22407;42.820;23.374;2023-04-03T03:39:22;10.03;;;4.13;;
31872;SDS011;22407;42.820;23.374;2023-04-03T03:41:47;10.40;;;4.32;;
31872;SDS011;22407;42.820;23.374;2023-04-03T03:44:14;8.00;;;3.90;;
31872;SDS011;22407;42.820;23.374;2023-04-03T03:46:39;8.85;;;3.83;;
31872;SDS011;22407;42.820;23.374;2023-04-03T03:49:05;10.30;;;3.97;;
31872;SDS011;22407;42.820;23.374;2023-04-03T03:51:30;8.63;;;4.00;;
31872;SDS011;22407;42.820;23.374;2023-04-03T03:53:56;8.60;;;3.63;;
31872;SDS011;22407;42.820;23.374;2023-04-03T03:56:21;9.60;;;4.20;;
31872;SDS011;22407;42.820;23.374;2023-04-03T03:58:46;9.10;;;4.33;;
31872;SDS011;22407;42.820;23.374;2023-04-03T04:01:12;9.20;;;4.30;;
31872;SDS011;22407;42.820;23.374;2023-04-03T04:03:37;8.00;;;4.33;;
31872;SDS011;22407;42.820;23.374;2023-04-03T04:06:02;7.30;;;3.10;;
31872;SDS011;22407;42.820;23.374;2023-04-03T04:08:28;8.93;;;4.03;;
31872;SDS011;22407;42.820;23.374;2023-04-03T04:10:53;9.80;;;4.07;;
31872;SDS011;22407;42.820;23.374;2023-04-03T04:13:18;8.97;;;4.33;;
31872;SDS011;22407;42.820;23.374;2023-04-03T04:15:44;8.07;;;3.33;;
31872;SDS011;22407;42.820;23.374;2023-04-03T04:18:09;8.73;;;4.10;;
31872;SDS011;22407;42.820;23.374;2023-04-03T04:20:35;9.17;;;4.77;;
31872;SDS011;22407;42.820;23.374;2023-04-03T04:23:00;9.20;;;4.33;;
31872;SDS011;22407;42.820;23.374;2023-04-03T04:25:25;9.93;;;4.20;;
31872;SDS011;22407;42.820;23.374;2023-04-03T04:27:53;8.73;;;4.75;;
31872;SDS011;22407;42.820;23.374;2023-04-03T04:30:18;8.70;;;4.20;;
31872;SDS011;22407;42.820;23.374;2023-04-03T04:32:44;8.93;;;4.00;;
31872;SDS011;22407;42.820;23.374;2023-04-03T04:35:09;9.23;;;3.77;;
31872;SDS011;22407;42.820;23.374;2023-04-03T04:37:34;8.70;;;4.07;;
31872;SDS011;22407;42.820;23.374;2023-04-03T04:40:00;8.00;;;4.03;;
31872;SDS011;22407;42.820;23.374;2023-04-03T04:42:25;10.23;;;4.27;;
31872;SDS011;22407;42.820;23.374;2023-04-03T04:44:50;8.07;;;3.77;;
31872;SDS011;22407;42.820;23.374;2023-04-03T04:47:16;8.97;;;4.20;;
31872;SDS011;22407;42.820;23.374;2023-04-03T04:49:41;10.17;;;4.03;;
31872;SDS011;22407;42.820;23.374;2023-04-03T04:52:06;10.17;;;3.97;;
31872;SDS011;22407;42.820;23.374;2023-04-03T04:54:32;9.37;;;3.93;;
31872;SDS011;22407;42.820;23.374;2023-04-03T04:56:57;8.10;;;4.00;;
31872;SDS011;22407;42.820;23.374;2023-04-03T04:59:22;9.93;;;3.77;;
31872;SDS011;22407;42.820;23.374;2023-04-03T05:01:48;8.40;;;3.67;;
31872;SDS011;22407;42.820;23.374;2023-04-03T05:04:13;23.27;;;6.67;;
31872;SDS011;22407;42.820;23.374;2023-04-03T05:06:38;15.83;;;6.40;;
31872;SDS011;22407;42.820;23.374;2023-04-03T05:09:03;14.27;;;7.00;;
31872;SDS011;22407;42.820;23.374;2023-04-03T05:11:29;14.63;;;6.60;;
31872;SDS011;22407;42.820;23.374;2023-04-03T05:13:54;16.53;;;6.00;;
31872;SDS011;22407;42.820;23.374;2023-04-03T05:16:19;16.00;;;6.03;;
31872;SDS011;22407;42.820;23.374;2023-04-03T05:18:45;14.63;;;5.27;;
31872;SDS011;22407;42.820;23.374;2023-04-03T05:21:10;14.75;;;4.72;;
31872;SDS011;22407;42.820;23.374;2023-04-03T05:23:35;12.03;;;5.07;;
31872;SDS011;22407;42.820;23.374;2023-04-03T05:26:01;14.80;;;4.73;;
31872;SDS011;22407;42.820;23.374;2023-04-03T05:28:26;13.07;;;5.00;;
31872;SDS011;22407;42.820;23.374;2023-04-03T05:30:58;9.93;;;4.93;;
31872;SDS011;22407;42.820;23.374;2023-04-03T05:33:23;14.68;;;6.47;;
31872;SDS011;22407;42.820;23.374;2023-04-03T05:35:49;12.90;;;6.00;;
31872;SDS011;22407;42.820;23.374;2023-04-03T05:38:14;25.13;;;11.97;;
31872;SDS011;22407;42.820;23.374;2023-04-03T05:40:40;17.57;;;7.57;;
31872;SDS011;22407;42.820;23.374;2023-04-03T05:43:05;35.50;;;17.73;;
31872;SDS011;22407;42.820;23.374;2023-04-03T05:45:30;24.43;;;12.87;;
31872;SDS011;22407;42.820;23.374;2023-04-03T05:47:56;24.53;;;13.30;;
31872;SDS011;22407;42.820;23.374;2023-04-03T05:50:21;38.20;;;20.53;;
31872;SDS011;22407;42.820;23.374;2023-04-03T05:52:47;44.67;;;20.43;;
31872;SDS011;22407;42.820;23.374;2023-04-03T05:55:13;75.60;;;27.57;;
31872;SDS011;22407;42.820;23.374;2023-04-03T05:57:38;68.07;;;25.98;;
31872;SDS011;22407;42.820;23.374;2023-04-03T06:00:04;66.00;;;27.87;;
31872;SDS011;22407;42.820;23.374;2023-04-03T06:02:31;78.53;;;33.03;;
31872;SDS011;22407;42.820;23.374;2023-04-03T06:04:56;85.43;;;35.67;;
31872;SDS011;22407;42.820;23.374;2023-04-03T06:07:22;88.40;;;34.97;;
31872;SDS011;22407;42.820;23.374;2023-04-03T06:09:48;62.70;;;29.35;;
31872;SDS011;22407;42.820;23.374;2023-04-03T06:12:14;30.97;;;14.37;;
31872;SDS011;22407;42.820;23.374;2023-04-03T06:14:39;28.25;;;13.90;;
31872;SDS011;22407;42.820;23.374;2023-04-03T06:17:05;33.30;;;14.30;;
31872;SDS011;22407;42.820;23.374;2023-04-03T06:19:31;34.83;;;13.77;;
31872;SDS011;22407;42.820;23.374;2023-04-03T06:21:56;35.87;;;16.53;;
31872;SDS011;22407;42.820;23.374;2023-04-03T06:24:22;27.75;;;11.38;;
31872;SDS011;22407;42.820;23.374;2023-04-03T06:26:49;29.87;;;13.13;;
31872;SDS011;22407;42.820;23.374;2023-04-03T06:29:16;29.90;;;12.43;;
31872;SDS011;22407;42.820;23.374;2023-04-03T06:31:41;29.77;;;12.63;;
31872;SDS011;22407;42.820;23.374;2023-04-03T06:34:06;27.23;;;13.40;;
31872;SDS011;22407;42.820;23.374;2023-04-03T06:36:32;30.47;;;14.13;;
31872;SDS011;22407;42.820;23.374;2023-04-03T06:38:57;27.97;;;12.77;;
31872;SDS011;22407;42.820;23.374;2023-04-03T06:41:23;30.87;;;15.63;;
31872;SDS011;22407;42.820;23.374;2023-04-03T06:43:48;32.53;;;16.90;;
31872;SDS011;22407;42.820;23.374;2023-04-03T06:46:17;31.90;;;15.63;;
31872;SDS011;22407;42.820;23.374;2023-04-03T06:48:43;22.87;;;11.67;;
31872;SDS011;22407;42.820;23.374;2023-04-03T06:51:15;24.40;;;11.82;;
31872;SDS011;22407;42.820;23.374;2023-04-03T06:53:42;17.48;;;9.10;;
31872;SDS011;22407;42.820;23.374;2023-04-03T06:56:07;22.33;;;10.93;;
31872;SDS011;22407;42.820;23.374;2023-04-03T06:58:32;18.73;;;8.47;;
31872;SDS011;22407;42.820;23.374;2023-04-03T07:00:58;20.10;;;8.40;;
31872;SDS011;22407;42.820;23.374;2023-04-03T07:03:26;20.67;;;9.32;;
31872;SDS011;22407;42.820;23.374;2023-04-03T07:05:52;17.80;;;7.15;;
31872;SDS011;22407;42.820;23.374;2023-04-03T07:08:17;14.07;;;7.10;;
31872;SDS011;22407;42.820;23.374;2023-04-03T07:10:43;15.60;;;6.90;;
31872;SDS011;22407;42.820;23.374;2023-04-03T07:13:08;14.23;;;6.30;;
31872;SDS011;22407;42.820;23.374;2023-04-03T07:15:33;13.27;;;6.37;;
31872;SDS011;22407;42.820;23.374;2023-04-03T07:17:59;11.90;;;6.13;;
31872;SDS011;22407;42.820;23.374;2023-04-03T07:20:24;11.80;;;5.93;;
31872;SDS011;22407;42.820;23.374;2023-04-03T07:22:50;12.17;;;5.90;;
31872;SDS011;22407;42.820;23.374;2023-04-03T07:25:15;11.07;;;5.97;;
31872;SDS011;22407;42.820;23.374;2023-04-03T07:27:41;11.27;;;5.53;;
31872;SDS011;22407;42.820;23.374;2023-04-03T07:30:06;12.37;;;5.73;;
31872;SDS011;22407;42.820;23.374;2023-04-03T07:32:32;10.90;;;5.88;;
31872;SDS011;22407;42.820;23.374;2023-04-03T07:34:57;13.30;;;6.53;;
31872;SDS011;22407;42.820;23.374;2023-04-03T07:37:23;16.47;;;7.30;;
31872;SDS011;22407;42.820;23.374;2023-04-03T07:39:48;11.70;;;5.70;;
31872;SDS011;22407;42.820;23.374;2023-04-03T07:42:13;13.63;;;7.17;;
31872;SDS011;22407;42.820;23.374;2023-04-03T07:44:39;15.27;;;7.67;;
31872;SDS011;22407;42.820;23.374;2023-04-03T07:47:04;16.93;;;6.30;;
31872;SDS011;22407;42.820;23.374;2023-04-03T07:49:29;14.23;;;6.67;;
31872;SDS011;22407;42.820;23.374;2023-04-03T07:51:55;10.57;;;6.47;;
31872;SDS011;22407;42.820;23.374;2023-04-03T07:54:20;12.15;;;6.13;;
31872;SDS011;22407;42.820;23.374;2023-04-03T07:56:45;13.97;;;6.00;;
31872;SDS011;22407;42.820;23.374;2023-04-03T07:59:10;12.17;;;5.87;;
31872;SDS011;22407;42.820;23.374;2023-04-03T08:01:36;11.30;;;6.30;;
31872;SDS011;22407;42.820;23.374;2023-04-03T08:04:01;12.97;;;6.57;;
31872;SDS011;22407;42.820;23.374;2023-04-03T08:06:27;14.83;;;6.17;;
31872;SDS011;22407;42.820;23.374;2023-04-03T08:08:54;12.93;;;6.77;;
31872;SDS011;22407;42.820;23.374;2023-04-03T08:11:19;12.65;;;6.53;;
31872;SDS011;22407;42.820;23.374;2023-04-03T08:13:45;13.63;;;7.57;;
31872;SDS011;22407;42.820;23.374;2023-04-03T08:16:12;13.60;;;6.80;;
31872;SDS011;22407;42.820;23.374;2023-04-03T08:18:37;12.63;;;6.80;;
31872;SDS011;22407;42.820;23.374;2023-04-03T08:21:08;13.40;;;6.55;;
31872;SDS011;22407;42.820;23.374;2023-04-03T08:23:33;14.82;;;6.85;;
31872;SDS011;22407;42.820;23.374;2023-04-03T08:25:59;13.63;;;7.60;;
31872;SDS011;22407;42.820;23.374;2023-04-03T08:28:25;17.27;;;7.35;;
31872;SDS011;22407;42.820;23.374;2023-04-03T08:30:50;13.03;;;6.50;;
31872;SDS011;22407;42.820;23.374;2023-04-03T08:33:15;13.57;;;7.37;;
31872;SDS011;22407;42.820;23.374;2023-04-03T08:35:41;17.10;;;8.13;;
31872;SDS011;22407;42.820;23.374;2023-04-03T08:38:07;17.07;;;8.83;;
31872;SDS011;22407;42.820;23.374;2023-04-03T08:40:32;25.37;;;13.77;;
31872;SDS011;22407;42.820;23.374;2023-04-03T08:48:11;21.10;;;10.30;;
31872;SDS011;22407;42.820;23.374;2023-04-03T08:50:41;18.67;;;9.17;;
31872;SDS011;22407;42.820;23.374;2023-04-03T08:53:15;17.92;;;9.68;;
31872;SDS011;22407;42.820;23.374;2023-04-03T08:55:47;19.83;;;10.65;;
31872;SDS011;22407;42.820;23.374;2023-04-03T08:58:19;16.98;;;9.07;;
31872;SDS011;22407;42.820;23.374;2023-04-03T09:00:46;50.55;;;20.92;;
31872;SDS011;22407;42.820;23.374;2023-04-03T09:03:13;28.47;;;14.73;;
31872;SDS011;22407;42.820;23.374;2023-04-03T09:05:40;17.83;;;9.32;;
31872;SDS011;22407;42.820;23.374;2023-04-03T09:10:39;18.77;;;8.65;;
31872;SDS011;22407;42.820;23.374;2023-04-03T09:13:06;26.70;;;11.63;;
31872;SDS011;22407;42.820;23.374;2023-04-03T09:15:37;17.87;;;8.03;;
31872;SDS011;22407;42.820;23.374;2023-04-03T09:22:53;18.77;;;9.53;;
31872;SDS011;22407;42.820;23.374;2023-04-03T09:27:44;15.23;;;7.03;;
31872;SDS011;22407;42.820;23.374;2023-04-03T09:30:16;17.23;;;7.97;;
31872;SDS011;22407;42.820;23.374;2023-04-03T09:32:44;16.58;;;7.93;;
31872;SDS011;22407;42.820;23.374;2023-04-03T09:37:51;15.52;;;7.55;;
31872;SDS011;22407;42.820;23.374;2023-04-03T09:42:58;15.43;;;6.80;;
31872;SDS011;22407;42.820;23.374;2023-04-03T09:45:29;14.77;;;7.10;;
31872;SDS011;22407;42.820;23.374;2023-04-03T09:51:00;14.30;;;8.40;;
31872;SDS011;22407;42.820;23.374;2023-04-03T09:53:40;15.38;;;8.65;;
31872;SDS011;22407;42.820;23.374;2023-04-03T09:58:41;16.50;;;7.50;;
31872;SDS011;22407;42.820;23.374;2023-04-03T10:01:20;11.17;;;5.63;;
31872;SDS011;22407;42.820;23.374;2023-04-03T10:03:46;11.48;;;5.93;;
31872;SDS011;22407;42.820;23.374;2023-04-03T10:06:26;15.30;;;7.53;;
31872;SDS011;22407;42.820;23.374;2023-04-03T10:08:59;15.63;;;6.82;;
31872;SDS011;22407;42.820;23.374;2023-04-03T10:11:26;13.93;;;6.50;;
31872;SDS011;22407;42.820;23.374;2023-04-03T10:13:52;15.37;;;7.37;;
31872;SDS011;22407;42.820;23.374;2023-04-03T10:16:19;16.10;;;7.53;;
31872;SDS011;22407;42.820;23.374;2023-04-03T10:18:48;41.17;;;14.73;;
31872;SDS011;22407;42.820;23.374;2023-04-03T10:23:49;25.87;;;13.03;;
31872;SDS011;22407;42.820;23.374;2023-04-03T10:28:56;57.70;;;27.45;;
31872;SDS011;22407;42.820;23.374;2023-04-03T10:31:25;41.72;;;22.55;;
31872;SDS011;22407;42.820;23.374;2023-04-03T10:33:54;18.83;;;9.75;;
31872;SDS011;22407;42.820;23.374;2023-04-03T10:36:27;20.10;;;9.63;;
31872;SDS011;22407;42.820;23.374;2023-04-03T10:41:41;4.45;;;1.77;;
31872;SDS011;22407;42.820;23.374;2023-04-03T10:46:44;6.20;;;1.88;;
31872;SDS011;22407;42.820;23.374;2023-04-03T10:49:17;4.30;;;1.40;;
31872;SDS011;22407;42.820;23.374;2023-04-03T10:51:45;5.88;;;1.50;;
31872;SDS011;22407;42.820;23.374;2023-04-03T10:54:15;5.00;;;1.77;;
31872;SDS011;22407;42.820;23.374;2023-04-03T10:56:53;4.50;;;1.58;;
31872;SDS011;22407;42.820;23.374;2023-04-03T10:59:33;4.97;;;2.03;;
31872;SDS011;22407;42.820;23.374;2023-04-03T11:02:04;4.13;;;1.50;;
31872;SDS011;22407;42.820;23.374;2023-04-03T11:04:35;5.03;;;1.67;;
31872;SDS011;22407;42.820;23.374;2023-04-03T11:07:02;6.07;;;1.33;;
31872;SDS011;22407;42.820;23.374;2023-04-03T11:09:33;4.60;;;1.80;;
31872;SDS011;22407;42.820;23.374;2023-04-03T11:12:13;4.85;;;2.00;;
31872;SDS011;22407;42.820;23.374;2023-04-03T11:14:39;4.87;;;2.00;;
31872;SDS011;22407;42.820;23.374;2023-04-03T11:19:43;4.95;;;1.58;;
31872;SDS011;22407;42.820;23.374;2023-04-03T11:24:36;4.70;;;2.10;;
31872;SDS011;22407;42.820;23.374;2023-04-03T11:27:03;6.18;;;2.90;;
31872;SDS011;22407;42.820;23.374;2023-04-03T11:29:37;5.90;;;1.87;;
31872;SDS011;22407;42.820;23.374;2023-04-03T11:34:40;6.03;;;2.55;;
31872;SDS011;22407;42.820;23.374;2023-04-03T11:37:24;5.90;;;2.70;;
31872;SDS011;22407;42.820;23.374;2023-04-03T11:39:54;6.07;;;1.80;;
31872;SDS011;22407;42.820;23.374;2023-04-03T11:42:40;5.00;;;1.55;;
31872;SDS011;22407;42.820;23.374;2023-04-03T11:47:48;6.53;;;2.58;;
31872;SDS011;22407;42.820;23.374;2023-04-03T11:53:02;9.63;;;4.60;;
31872;SDS011;22407;42.820;23.374;2023-04-03T12:05:56;11.27;;;6.45;;
31872;SDS011;22407;42.820;23.374;2023-04-03T12:08:25;10.68;;;6.15;;
31872;SDS011;22407;42.820;23.374;2023-04-03T12:16:00;11.73;;;6.37;;
31872;SDS011;22407;42.820;23.374;2023-04-03T12:20:57;14.23;;;7.18;;
31872;SDS011;22407;42.820;23.374;2023-04-03T12:23:23;9.57;;;4.73;;
31872;SDS011;22407;42.820;23.374;2023-04-03T12:25:50;13.77;;;7.33;;
31872;SDS011;22407;42.820;23.374;2023-04-03T12:28:15;17.23;;;8.65;;
31872;SDS011;22407;42.820;23.374;2023-04-03T12:30:41;23.88;;;11.13;;
31872;SDS011;22407;42.820;23.374;2023-04-03T12:35:39;21.77;;;11.77;;
31872;SDS011;22407;42.820;23.374;2023-04-03T12:43:28;17.17;;;9.45;;
31872;SDS011;22407;42.820;23.374;2023-04-03T12:48:37;14.93;;;7.63;;
31872;SDS011;22407;42.820;23.374;2023-04-03T12:51:03;14.63;;;7.65;;
31872;SDS011;22407;42.820;23.374;2023-04-03T12:53:31;10.57;;;6.00;;
31872;SDS011;22407;42.820;23.374;2023-04-03T12:56:44;9.98;;;4.50;;
31872;SDS011;22407;42.820;23.374;2023-04-03T12:58:45;10.05;;;5.30;;
31872;SDS011;22407;42.820;23.374;2023-04-03T13:01:12;15.57;;;6.30;;
31872;SDS011;22407;42.820;23.374;2023-04-03T13:03:39;11.15;;;5.38;;
31872;SDS011;22407;42.820;23.374;2023-04-03T13:06:05;16.63;;;8.27;;
31872;SDS011;22407;42.820;23.374;2023-04-03T13:08:30;14.47;;;7.50;;
31872;SDS011;22407;42.820;23.374;2023-04-03T13:13:21;10.30;;;4.30;;
31872;SDS011;22407;42.820;23.374;2023-04-03T13:15:48;10.27;;;4.88;;
31872;SDS011;22407;42.820;23.374;2023-04-03T13:18:51;10.43;;;4.17;;
31872;SDS011;22407;42.820;23.374;2023-04-03T13:21:17;10.45;;;3.85;;
31872;SDS011;22407;42.820;23.374;2023-04-03T13:23:45;15.60;;;5.85;;
31872;SDS011;22407;42.820;23.374;2023-04-03T13:26:11;11.75;;;4.03;;
31872;SDS011;22407;42.820;23.374;2023-04-03T13:28:36;22.20;;;8.03;;
31872;SDS011;22407;42.820;23.374;2023-04-03T13:31:07;28.20;;;12.13;;
31872;SDS011;22407;42.820;23.374;2023-04-03T13:33:35;24.95;;;11.88;;
31872;SDS011;22407;42.820;23.374;2023-04-03T13:36:04;12.80;;;6.68;;
31872;SDS011;22407;42.820;23.374;2023-04-03T13:38:30;9.50;;;5.40;;
31872;SDS011;22407;42.820;23.374;2023-04-03T13:41:20;9.80;;;5.25;;
31872;SDS011;22407;42.820;23.374;2023-04-03T13:43:46;10.03;;;4.80;;
31872;SDS011;22407;42.820;23.374;2023-04-03T13:48:38;13.70;;;5.00;;
31872;SDS011;22407;42.820;23.374;2023-04-03T13:51:05;9.13;;;4.67;;
31872;SDS011;22407;42.820;23.374;2023-04-03T13:53:32;11.77;;;5.00;;
31872;SDS011;22407;42.820;23.374;2023-04-03T13:58:29;9.23;;;4.20;;
31872;SDS011;22407;42.820;23.374;2023-04-03T14:06:17;10.05;;;5.20;;
31872;SDS011;22407;42.820;23.374;2023-04-03T14:08:43;9.83;;;5.00;;
31872;SDS011;22407;42.820;23.374;2023-04-03T14:11:11;9.98;;;4.85;;
31872;SDS011;22407;42.820;23.374;2023-04-03T14:13:40;12.07;;;5.85;;
31872;SDS011;22407;42.820;23.374;2023-04-03T14:16:05;11.90;;;6.37;;
31872;SDS011;22407;42.820;23.374;2023-04-03T14:18:31;12.05;;;5.75;;
31872;SDS011;22407;42.820;23.374;2023-04-03T14:20:56;12.30;;;5.70;;
31872;SDS011;22407;42.820;23.374;2023-04-03T14:23:22;17.47;;;8.47;;
31872;SDS011;22407;42.820;23.374;2023-04-03T14:25:47;25.93;;;11.97;;
31872;SDS011;22407;42.820;23.374;2023-04-03T14:28:14;33.30;;;15.77;;
31872;SDS011;22407;42.820;23.374;2023-04-03T14:30:40;21.83;;;11.23;;
31872;SDS011;22407;42.820;23.374;2023-04-03T14:33:05;23.33;;;10.73;;
31872;SDS011;22407;42.820;23.374;2023-04-03T14:35:31;25.40;;;12.52;;
31872;SDS011;22407;42.820;23.374;2023-04-03T14:37:56;33.50;;;17.27;;
31872;SDS011;22407;42.820;23.374;2023-04-03T14:40:24;19.67;;;10.07;;
31872;SDS011;22407;42.820;23.374;2023-04-03T14:42:49;18.10;;;9.02;;
31872;SDS011;22407;42.820;23.374;2023-04-03T14:45:15;44.47;;;18.25;;
31872;SDS011;22407;42.820;23.374;2023-04-03T14:47:45;29.27;;;14.07;;
31872;SDS011;22407;42.820;23.374;2023-04-03T14:50:17;24.95;;;11.18;;
31872;SDS011;22407;42.820;23.374;2023-04-03T14:52:43;33.85;;;14.23;;
31872;SDS011;22407;42.820;23.374;2023-04-03T14:55:09;39.97;;;15.20;;
31872;SDS011;22407;42.820;23.374;2023-04-03T14:57:36;32.13;;;15.17;;
31872;SDS011;22407;42.820;23.374;2023-04-03T15:00:03;29.23;;;14.55;;
31872;SDS011;22407;42.820;23.374;2023-04-03T15:02:30;26.80;;;13.88;;
31872;SDS011;22407;42.820;23.374;2023-04-03T15:04:55;25.48;;;13.20;;
31872;SDS011;22407;42.820;23.374;2023-04-03T15:07:22;17.25;;;9.13;;
31872;SDS011;22407;42.820;23.374;2023-04-03T15:09:48;19.17;;;9.03;;
31872;SDS011;22407;42.820;23.374;2023-04-03T15:12:13;18.35;;;9.73;;
31872;SDS011;22407;42.820;23.374;2023-04-03T15:14:38;18.90;;;9.37;;
31872;SDS011;22407;42.820;23.374;2023-04-03T15:17:04;16.00;;;8.43;;
31872;SDS011;22407;42.820;23.374;2023-04-03T15:19:31;18.38;;;9.02;;
31872;SDS011;22407;42.820;23.374;2023-04-03T15:22:00;14.23;;;8.52;;
31872;SDS011;22407;42.820;23.374;2023-04-03T15:24:25;16.50;;;9.40;;
31872;SDS011;22407;42.820;23.374;2023-04-03T15:26:50;13.57;;;7.87;;
31872;SDS011;22407;42.820;23.374;2023-04-03T15:29:16;12.80;;;7.13;;
31872;SDS011;22407;42.820;23.374;2023-04-03T15:31:41;14.57;;;8.43;;
31872;SDS011;22407;42.820;23.374;2023-04-03T15:34:06;14.27;;;7.27;;
31872;SDS011;22407;42.820;23.374;2023-04-03T15:36:32;16.40;;;8.80;;
31872;SDS011;22407;42.820;23.374;2023-04-03T15:38:57;16.13;;;10.37;;
31872;SDS011;22407;42.820;23.374;2023-04-03T15:41:22;17.77;;;8.87;;
31872;SDS011;22407;42.820;23.374;2023-04-03T15:43:47;18.40;;;10.50;;
31872;SDS011;22407;42.820;23.374;2023-04-03T15:46:13;14.37;;;8.37;;
31872;SDS011;22407;42.820;23.374;2023-04-03T15:48:38;17.50;;;10.20;;
31872;SDS011;22407;42.820;23.374;2023-04-03T15:51:05;28.63;;;11.53;;
31872;SDS011;22407;42.820;23.374;2023-04-03T15:53:30;19.77;;;10.65;;
31872;SDS011;22407;42.820;23.374;2023-04-03T15:55:55;21.77;;;10.53;;